createdAt,value
2023-05-07T00:00:44.938Z,24.27
2023-05-07T00:03:12.450Z,25.00
2023-05-07T00:05:39.111Z,32.10
2023-05-07T00:08:05.928Z,26.63
2023-05-07T00:10:32.543Z,22.98
2023-05-07T00:12:59.188Z,24.63
2023-05-07T00:15:25.821Z,21.02
2023-05-07T00:17:52.481Z,25.05
2023-05-07T00:20:19.069Z,19.77
2023-05-07T00:22:46.043Z,26.25
2023-05-07T00:25:12.671Z,22.63
2023-05-07T00:27:39.405Z,20.73
2023-05-07T00:30:07.156Z,21.30
2023-05-07T00:32:33.792Z,17.83
2023-05-07T00:35:00.479Z,18.67
2023-05-07T00:37:27.088Z,19.85
2023-05-07T00:39:53.777Z,17.73
2023-05-07T00:42:20.800Z,17.20
2023-05-07T00:44:47.395Z,17.30
2023-05-07T00:47:15.020Z,18.30
2023-05-07T00:49:46.153Z,19.92
2023-05-07T00:52:15.551Z,18.75
2023-05-07T00:54:42.475Z,19.50
2023-05-07T00:57:10.683Z,18.23
2023-05-07T00:59:37.283Z,21.13
2023-05-07T01:02:03.893Z,15.77
2023-05-07T01:04:30.701Z,19.65
2023-05-07T01:06:59.204Z,17.83
2023-05-07T01:09:26.771Z,15.70
2023-05-07T01:11:53.586Z,16.58
2023-05-07T01:14:21.429Z,17.98
2023-05-07T01:16:48.952Z,23.42
2023-05-07T01:19:19.458Z,17.35
2023-05-07T01:21:48.250Z,13.75
2023-05-07T01:24:17.041Z,16.25
2023-05-07T01:26:45.464Z,16.08
2023-05-07T01:29:14.635Z,19.50
2023-05-07T01:31:42.770Z,14.63
2023-05-07T01:34:11.533Z,16.25
2023-05-07T01:36:40.284Z,27.58
2023-05-07T01:39:07.670Z,24.15
2023-05-07T01:41:34.355Z,19.27
2023-05-07T01:44:01.378Z,21.25
2023-05-07T01:46:28.914Z,21.33
2023-05-07T01:48:55.868Z,17.35
2023-05-07T01:51:23.295Z,19.90
2023-05-07T01:53:51.722Z,21.30
2023-05-07T01:56:20.053Z,23.10
2023-05-07T01:58:47.822Z,16.45
2023-05-07T02:01:15.266Z,22.02
2023-05-07T02:03:43.535Z,23.45
2023-05-07T02:06:18.284Z,17.02
2023-05-07T02:08:45.000Z,21.52
2023-05-07T02:11:13.299Z,21.67
2023-05-07T02:13:40.001Z,20.90
2023-05-07T02:16:06.988Z,24.85
2023-05-07T02:18:34.282Z,17.90
2023-05-07T02:21:00.933Z,21.90
2023-05-07T02:23:27.565Z,18.27
2023-05-07T02:25:54.468Z,22.08
2023-05-07T02:28:21.161Z,19.25
2023-05-07T02:30:52.137Z,23.55
2023-05-07T02:33:19.794Z,22.63
2023-05-07T02:35:47.037Z,24.92
2023-05-07T02:38:15.751Z,22.10
2023-05-07T02:40:42.562Z,20.02
2023-05-07T02:43:09.389Z,25.10
2023-05-07T02:45:37.176Z,22.67
2023-05-07T02:48:06.755Z,21.15
2023-05-07T02:50:33.567Z,19.42
2023-05-07T02:53:00.510Z,23.27
2023-05-07T02:55:27.121Z,23.65
2023-05-07T02:57:53.832Z,19.88
2023-05-07T03:00:21.168Z,22.60
2023-05-07T03:02:55.820Z,23.52
2023-05-07T03:05:23.017Z,19.65
2023-05-07T03:07:49.726Z,18.95
2023-05-07T03:10:16.773Z,21.95
2023-05-07T03:12:43.558Z,21.90
2023-05-07T03:15:15.182Z,18.65
2023-05-07T03:17:42.013Z,16.95
2023-05-07T03:20:11.136Z,15.88
2023-05-07T03:22:38.391Z,16.35
2023-05-07T03:25:05.514Z,18.98
2023-05-07T03:27:32.111Z,16.65
2023-05-07T03:29:58.747Z,21.25
2023-05-07T03:32:25.746Z,16.38
2023-05-07T03:34:52.441Z,21.50
2023-05-07T03:37:19.558Z,20.67
2023-05-07T03:39:46.148Z,16.67
2023-05-07T03:42:12.980Z,21.50
2023-05-07T03:44:40.262Z,23.10
2023-05-07T03:47:06.967Z,15.82
2023-05-07T03:49:33.590Z,16.30
2023-05-07T03:52:00.519Z,18.38
2023-05-07T03:54:27.255Z,17.45
2023-05-07T03:56:53.959Z,18.50
2023-05-07T03:59:21.290Z,14.65
2023-05-07T04:01:49.766Z,20.00
2023-05-07T04:04:18.991Z,17.00
2023-05-07T04:06:45.826Z,17.88
2023-05-07T04:09:13.076Z,16.85
2023-05-07T04:11:41.256Z,20.27
2023-05-07T04:14:10.110Z,18.27
2023-05-07T04:16:37.739Z,17.80
2023-05-07T04:19:04.962Z,17.30
2023-05-07T04:21:32.349Z,19.75
2023-05-07T04:23:59.655Z,21.48
2023-05-07T04:26:26.338Z,22.60
2023-05-07T04:28:52.993Z,19.38
2023-05-07T04:31:19.725Z,22.65
2023-05-07T04:33:51.594Z,21.58
2023-05-07T04:36:18.907Z,18.48
2023-05-07T04:38:54.546Z,20.30
2023-05-07T04:41:21.699Z,17.98
2023-05-07T04:43:48.739Z,17.70
2023-05-07T04:46:17.238Z,19.15
2023-05-07T04:48:44.937Z,20.50
2023-05-07T04:51:11.828Z,19.85
2023-05-07T04:53:38.901Z,16.52
2023-05-07T04:56:05.569Z,17.80
2023-05-07T04:58:39.243Z,18.17
2023-05-07T05:01:06.095Z,19.70
2023-05-07T05:03:33.044Z,15.90
2023-05-07T05:06:00.780Z,18.10
2023-05-07T05:08:31.515Z,18.45
2023-05-07T05:10:58.258Z,16.95
2023-05-07T05:13:25.004Z,17.15
2023-05-07T05:15:51.778Z,14.80
2023-05-07T05:18:18.435Z,14.23
2023-05-07T05:20:45.942Z,16.50
2023-05-07T05:23:13.130Z,14.98
2023-05-07T05:25:41.196Z,15.35
2023-05-07T05:28:10.447Z,14.95
2023-05-07T05:30:37.361Z,17.73
2023-05-07T05:33:04.052Z,15.55
2023-05-07T05:35:31.561Z,17.85
2023-05-07T05:37:59.174Z,14.75
2023-05-07T05:40:25.779Z,15.30
2023-05-07T05:42:52.537Z,15.43
2023-05-07T05:45:19.532Z,13.13
2023-05-07T05:47:46.778Z,15.05
2023-05-07T05:50:13.900Z,14.27
2023-05-07T05:52:41.738Z,17.33
2023-05-07T05:55:09.526Z,14.80
2023-05-07T05:57:37.096Z,19.55
2023-05-07T06:00:06.355Z,17.33
2023-05-07T06:02:45.491Z,15.60
2023-05-07T06:05:15.950Z,17.80
2023-05-07T06:07:43.925Z,19.13
2023-05-07T06:10:11.226Z,19.35
2023-05-07T06:12:38.700Z,19.63
2023-05-07T06:15:06.011Z,18.05
2023-05-07T06:17:32.978Z,20.00
2023-05-07T06:19:59.721Z,22.58
2023-05-07T06:22:26.521Z,18.67
2023-05-07T06:24:53.130Z,22.67
2023-05-07T06:27:19.797Z,21.10
2023-05-07T06:29:49.038Z,21.00
2023-05-07T06:32:19.221Z,20.00
2023-05-07T06:34:46.894Z,19.27
2023-05-07T06:37:14.737Z,17.58
2023-05-07T06:40:03.677Z,18.65
2023-05-07T06:42:31.901Z,20.42
2023-05-07T06:45:06.533Z,22.23
2023-05-07T06:47:33.249Z,27.05
2023-05-07T06:49:59.893Z,21.63
2023-05-07T06:52:30.758Z,25.55
2023-05-07T06:54:57.711Z,25.60
2023-05-07T06:57:26.158Z,22.73
2023-05-07T06:59:52.979Z,20.80
2023-05-07T07:02:20.528Z,20.90
2023-05-07T07:04:49.447Z,19.85
2023-05-07T07:07:16.457Z,24.45
2023-05-07T07:09:46.008Z,21.38
2023-05-07T07:12:16.296Z,20.48
2023-05-07T07:14:43.550Z,18.05
2023-05-07T07:17:10.240Z,20.05
2023-05-07T07:19:37.046Z,20.73
2023-05-07T07:22:04.798Z,21.30
2023-05-07T07:24:32.703Z,20.90
2023-05-07T07:27:03.036Z,21.50
2023-05-07T07:29:31.072Z,20.77
2023-05-07T07:31:57.825Z,18.88
2023-05-07T07:34:26.915Z,20.65
2023-05-07T07:36:53.594Z,21.90
2023-05-07T07:39:20.678Z,23.20
2023-05-07T07:41:50.645Z,19.02
2023-05-07T07:44:19.441Z,20.65
2023-05-07T07:46:52.829Z,20.33
2023-05-07T07:49:23.601Z,21.75
2023-05-07T07:51:50.392Z,16.10
2023-05-07T07:54:17.663Z,18.38
2023-05-07T07:56:44.668Z,17.73
2023-05-07T07:59:14.729Z,20.33
2023-05-07T08:01:42.305Z,19.85
2023-05-07T08:04:10.068Z,19.63
2023-05-07T08:06:40.292Z,21.35
2023-05-07T08:09:09.426Z,19.27
2023-05-07T08:11:37.232Z,20.08
2023-05-07T08:14:04.474Z,21.38
2023-05-07T08:16:31.324Z,21.95
2023-05-07T08:18:59.527Z,19.88
2023-05-07T08:21:27.241Z,22.67
2023-05-07T08:23:54.395Z,22.38
2023-05-07T08:26:21.477Z,22.20
2023-05-07T08:28:49.307Z,20.90
2023-05-07T08:31:16.731Z,20.95
2023-05-07T08:33:45.562Z,18.08
2023-05-07T08:36:12.526Z,19.98
2023-05-07T08:38:41.754Z,18.88
2023-05-07T08:41:11.257Z,18.73
2023-05-07T08:43:41.944Z,17.48
2023-05-07T08:46:10.801Z,19.88
2023-05-07T08:48:40.768Z,19.52
2023-05-07T08:51:14.586Z,19.58
2023-05-07T08:53:42.449Z,19.38
2023-05-07T08:56:12.544Z,19.58
2023-05-07T08:58:40.044Z,19.50
2023-05-07T09:01:12.885Z,21.33
2023-05-07T09:03:40.720Z,17.20
2023-05-07T09:06:07.762Z,19.88
2023-05-07T09:08:36.753Z,19.60
2023-05-07T09:11:05.849Z,17.88
2023-05-07T09:13:32.552Z,18.58
2023-05-07T09:16:12.075Z,21.05
2023-05-07T09:18:44.346Z,15.90
2023-05-07T09:21:22.177Z,19.95
2023-05-07T09:23:54.793Z,21.67
2023-05-07T09:26:26.021Z,19.00
2023-05-07T09:28:53.017Z,17.60
2023-05-07T09:31:21.608Z,16.80
2023-05-07T09:33:49.458Z,19.33
2023-05-07T09:36:17.001Z,15.18
2023-05-07T09:38:44.829Z,18.00
2023-05-07T09:41:14.659Z,20.83
2023-05-07T09:43:55.363Z,14.98
2023-05-07T09:46:35.469Z,18.13
2023-05-07T09:49:11.253Z,16.80
2023-05-07T09:51:49.470Z,14.38
2023-05-07T09:54:17.731Z,17.25
2023-05-07T09:56:51.573Z,18.85
2023-05-07T09:59:20.173Z,15.90
2023-05-07T10:01:47.890Z,16.08
2023-05-07T10:04:15.209Z,22.15
2023-05-07T10:06:44.457Z,17.20
2023-05-07T10:09:12.081Z,14.73
2023-05-07T10:11:39.272Z,17.13
2023-05-07T10:14:09.356Z,15.93
2023-05-07T10:16:38.748Z,17.67
2023-05-07T10:19:13.430Z,14.52
2023-05-07T10:21:53.320Z,17.38
2023-05-07T10:24:27.568Z,15.52
2023-05-07T10:26:55.780Z,12.73
2023-05-07T10:29:36.364Z,13.05
2023-05-07T10:32:13.274Z,18.52
2023-05-07T10:34:54.910Z,15.80
2023-05-07T10:37:22.131Z,17.23
2023-05-07T10:39:49.005Z,18.35
2023-05-07T10:42:16.385Z,17.63
2023-05-07T10:44:49.249Z,14.95
2023-05-07T10:47:23.182Z,18.27
2023-05-07T10:50:12.970Z,19.45
2023-05-07T10:52:41.307Z,12.48
2023-05-07T10:55:16.055Z,19.58
2023-05-07T10:57:45.009Z,18.95
2023-05-07T11:03:07.841Z,15.15
2023-05-07T11:05:43.879Z,18.10
2023-05-07T11:08:19.658Z,14.40
2023-05-07T11:11:07.013Z,14.90
2023-05-07T11:13:51.489Z,20.85
2023-05-07T11:16:44.612Z,16.38
2023-05-07T11:19:56.047Z,16.08
2023-05-07T11:22:41.700Z,14.93
2023-05-07T11:25:28.934Z,15.80
2023-05-07T11:28:08.314Z,15.70
2023-05-07T11:30:57.091Z,13.60
2023-05-07T11:33:24.022Z,11.68
2023-05-07T11:35:56.686Z,14.27
2023-05-07T11:38:30.260Z,13.65
2023-05-07T11:41:02.788Z,14.05
2023-05-07T11:43:29.637Z,14.43
2023-05-07T11:45:56.446Z,12.77
2023-05-07T11:48:26.350Z,12.48
2023-05-07T11:50:55.825Z,13.20
2023-05-07T11:53:26.911Z,9.15
2023-05-07T11:55:54.691Z,9.98
2023-05-07T11:58:25.915Z,8.77
2023-05-07T12:00:56.474Z,9.82
2023-05-07T12:03:23.299Z,13.85
2023-05-07T12:05:50.126Z,10.23
2023-05-07T12:08:17.580Z,11.68
2023-05-07T12:10:50.677Z,12.18
2023-05-07T12:13:23.072Z,12.30
2023-05-07T12:16:08.649Z,10.10
2023-05-07T12:18:37.571Z,13.18
2023-05-07T12:21:06.231Z,9.45
2023-05-07T12:23:33.265Z,9.27
2023-05-07T12:26:00.574Z,10.55
2023-05-07T12:28:27.810Z,10.93
2023-05-07T12:30:54.708Z,8.85
2023-05-07T12:33:26.160Z,6.15
2023-05-07T12:35:54.574Z,6.07
2023-05-07T12:38:21.530Z,7.95
2023-05-07T12:40:52.681Z,7.60
2023-05-07T12:43:20.547Z,8.95
2023-05-07T12:45:52.419Z,9.50
2023-05-07T12:48:20.889Z,7.20
2023-05-07T12:50:52.106Z,6.80
2023-05-07T12:53:22.242Z,8.60
2023-05-07T12:55:50.966Z,11.60
2023-05-07T12:58:21.545Z,6.68
2023-05-07T13:00:52.600Z,7.53
2023-05-07T13:03:38.493Z,10.77
2023-05-07T13:06:16.177Z,6.63
2023-05-07T13:08:46.228Z,8.77
2023-05-07T13:11:14.426Z,10.15
2023-05-07T13:13:42.155Z,8.18
2023-05-07T13:16:10.584Z,6.97
2023-05-07T13:18:38.926Z,8.38
2023-05-07T13:21:05.898Z,8.23
2023-05-07T13:23:32.607Z,8.73
2023-05-07T13:26:00.136Z,7.25
2023-05-07T13:28:28.101Z,11.13
2023-05-07T13:30:55.740Z,8.82
2023-05-07T13:33:23.293Z,9.07
2023-05-07T13:35:50.000Z,10.73
2023-05-07T13:38:17.266Z,11.57
2023-05-07T13:40:44.037Z,7.75
2023-05-07T13:43:11.574Z,10.75
2023-05-07T13:45:38.546Z,8.68
2023-05-07T13:48:05.439Z,11.43
2023-05-07T13:50:32.148Z,6.25
2023-05-07T13:53:07.485Z,6.57
2023-05-07T13:55:35.883Z,9.57
2023-05-07T13:58:06.972Z,8.98
2023-05-07T14:00:34.592Z,6.97
2023-05-07T14:03:01.815Z,8.15
2023-05-07T14:05:32.045Z,8.60
2023-05-07T14:07:59.240Z,9.63
2023-05-07T14:10:26.848Z,8.60
2023-05-07T14:12:56.518Z,8.60
2023-05-07T14:15:24.751Z,10.73
2023-05-07T14:17:51.440Z,9.35
2023-05-07T14:20:18.127Z,8.18
2023-05-07T14:22:45.125Z,10.10
2023-05-07T14:25:12.154Z,10.63
2023-05-07T14:27:38.900Z,8.48
2023-05-07T14:30:06.381Z,7.28
2023-05-07T14:32:34.129Z,11.27
2023-05-07T14:35:00.906Z,8.95
2023-05-07T14:37:28.066Z,8.55
2023-05-07T14:39:54.802Z,9.93
2023-05-07T14:42:23.106Z,6.60
2023-05-07T14:44:50.149Z,6.93
2023-05-07T14:47:18.273Z,7.72
2023-05-07T14:49:46.990Z,6.82
2023-05-07T14:52:15.299Z,7.88
2023-05-07T14:54:42.004Z,7.82
2023-05-07T14:57:10.919Z,6.93
2023-05-07T14:59:40.448Z,10.55
2023-05-07T15:02:09.090Z,8.93
2023-05-07T15:04:38.015Z,9.05
2023-05-07T15:07:04.674Z,12.93
2023-05-07T15:09:31.454Z,7.95
2023-05-07T15:11:58.402Z,8.55
2023-05-07T15:14:27.491Z,6.68
2023-05-07T15:16:54.076Z,8.85
2023-05-07T15:19:21.151Z,7.97
2023-05-07T15:21:47.861Z,10.80
2023-05-07T15:24:14.517Z,7.15
2023-05-07T15:26:42.608Z,10.65
2023-05-07T15:29:11.073Z,13.05
2023-05-07T15:31:42.804Z,8.63
2023-05-07T15:34:09.636Z,9.80
2023-05-07T15:36:36.434Z,8.32
2023-05-07T15:39:04.472Z,5.80
2023-05-07T15:41:31.750Z,7.28
2023-05-07T15:43:58.474Z,6.85
2023-05-07T15:46:26.879Z,8.23
2023-05-07T15:48:54.402Z,8.75
2023-05-07T15:51:21.898Z,10.43
2023-05-07T15:53:49.317Z,6.40
2023-05-07T15:56:15.995Z,4.57
2023-05-07T15:58:42.699Z,5.63
2023-05-07T16:01:10.308Z,6.47
2023-05-07T16:03:38.906Z,8.52
2023-05-07T16:06:06.038Z,5.82
2023-05-07T16:08:34.259Z,5.28
2023-05-07T16:11:04.183Z,5.72
2023-05-07T16:13:31.273Z,5.25
2023-05-07T16:15:58.872Z,8.38
2023-05-07T16:18:25.879Z,6.82
2023-05-07T16:20:54.568Z,7.68
2023-05-07T16:23:22.304Z,7.25
2023-05-07T16:25:49.877Z,7.32
2023-05-07T16:28:16.867Z,5.15
2023-05-07T16:30:44.576Z,7.10
2023-05-07T16:33:16.196Z,6.95
2023-05-07T16:35:47.441Z,4.75
2023-05-07T16:38:14.347Z,6.55
2023-05-07T16:40:41.251Z,5.38
2023-05-07T16:43:08.109Z,6.38
2023-05-07T16:45:35.217Z,6.25
2023-05-07T16:48:04.349Z,4.05
2023-05-07T16:50:31.091Z,4.40
2023-05-07T16:52:59.215Z,3.95
2023-05-07T16:55:30.770Z,3.85
2023-05-07T16:57:57.672Z,4.75
2023-05-07T17:00:27.851Z,4.03
2023-05-07T17:02:58.717Z,3.55
2023-05-07T17:05:25.847Z,3.42
2023-05-07T17:07:52.547Z,3.17
2023-05-07T17:10:22.239Z,5.13
2023-05-07T17:12:49.079Z,4.05
2023-05-07T17:15:16.997Z,4.60
2023-05-07T17:17:47.872Z,3.15
2023-05-07T17:20:15.526Z,4.30
2023-05-07T17:22:42.316Z,3.33
2023-05-07T17:25:14.252Z,6.15
2023-05-07T17:27:44.831Z,4.00
2023-05-07T17:30:12.293Z,5.28
2023-05-07T17:32:43.920Z,5.05
2023-05-07T17:35:10.627Z,2.50
2023-05-07T17:37:37.299Z,3.63
2023-05-07T17:40:05.208Z,4.72
2023-05-07T17:42:32.739Z,3.28
2023-05-07T17:44:59.705Z,2.72
2023-05-07T17:47:26.441Z,3.55
2023-05-07T17:49:53.692Z,3.55
2023-05-07T17:52:21.386Z,4.22
2023-05-07T17:54:49.141Z,4.90
2023-05-07T17:57:16.500Z,6.20
2023-05-07T17:59:44.336Z,4.78
2023-05-07T18:02:11.046Z,5.15
2023-05-07T18:04:37.831Z,4.85
2023-05-07T18:07:04.879Z,4.38
2023-05-07T18:09:31.494Z,5.63
2023-05-07T18:11:58.123Z,6.57
2023-05-07T18:14:26.381Z,5.47
2023-05-07T18:16:54.227Z,4.53
2023-05-07T18:19:21.409Z,5.07
2023-05-07T18:21:48.334Z,5.53
2023-05-07T18:24:15.120Z,7.07
2023-05-07T18:26:44.667Z,5.07
2023-05-07T18:29:11.322Z,9.85
2023-05-07T18:31:38.281Z,8.57
2023-05-07T18:34:06.227Z,10.13
2023-05-07T18:36:33.143Z,8.18
2023-05-07T18:38:59.947Z,11.98
2023-05-07T18:41:26.773Z,12.10
2023-05-07T18:43:53.420Z,12.40
2023-05-07T18:46:20.331Z,10.45
2023-05-07T18:48:47.003Z,11.52
2023-05-07T18:51:16.595Z,12.38
2023-05-07T18:53:43.593Z,14.02
2023-05-07T18:56:10.433Z,12.85
2023-05-07T18:58:42.496Z,14.45
2023-05-07T19:01:10.994Z,14.02
2023-05-07T19:03:50.530Z,13.15
2023-05-07T19:06:17.367Z,14.75
2023-05-07T19:08:43.995Z,12.50
2023-05-07T19:11:11.134Z,17.02
2023-05-07T19:13:37.757Z,15.23
2023-05-07T19:16:05.700Z,14.18
2023-05-07T19:18:33.059Z,14.93
2023-05-07T19:20:59.861Z,15.45
2023-05-07T19:23:26.639Z,14.18
2023-05-07T19:25:53.425Z,16.58
2023-05-07T19:28:20.216Z,16.27
2023-05-07T19:30:49.596Z,14.65
2023-05-07T19:33:16.671Z,21.52
2023-05-07T19:35:43.356Z,19.92
2023-05-07T19:38:12.917Z,18.77
2023-05-07T19:40:39.597Z,18.02
2023-05-07T19:43:08.148Z,14.70
2023-05-07T19:48:23.574Z,18.90
2023-05-07T19:50:50.355Z,23.23
2023-05-07T19:53:17.620Z,18.25
2023-05-07T19:55:44.294Z,16.48
2023-05-07T19:58:11.290Z,16.20
2023-05-07T20:00:39.582Z,25.80
2023-05-07T20:03:06.912Z,17.08
2023-05-07T20:05:35.430Z,17.95
2023-05-07T20:08:02.600Z,16.58
2023-05-07T20:10:29.266Z,18.63
2023-05-07T20:12:56.829Z,19.35
2023-05-07T20:15:24.529Z,17.90
2023-05-07T20:17:51.258Z,20.17
2023-05-07T20:20:18.068Z,19.30
2023-05-07T20:22:44.798Z,20.48
2023-05-07T20:25:13.524Z,16.92
2023-05-07T20:27:40.897Z,19.15
2023-05-07T20:30:10.551Z,23.27
2023-05-07T20:32:37.767Z,17.88
2023-05-07T20:35:06.607Z,18.75
2023-05-07T20:37:36.634Z,17.83
2023-05-07T20:40:05.143Z,17.63
2023-05-07T20:42:31.839Z,16.50
2023-05-07T20:44:58.494Z,20.08
2023-05-07T20:47:25.159Z,18.73
2023-05-07T20:49:53.211Z,19.58
2023-05-07T20:52:21.313Z,18.65
2023-05-07T20:54:51.317Z,19.33
2023-05-07T20:57:19.439Z,22.38
2023-05-07T20:59:47.684Z,19.38
2023-05-07T21:02:14.704Z,20.95
2023-05-07T21:04:42.632Z,21.15
2023-05-07T21:07:10.350Z,19.85
2023-05-07T21:09:37.404Z,22.38
2023-05-07T21:12:11.849Z,16.73
2023-05-07T21:14:41.502Z,16.73
2023-05-07T21:17:08.655Z,18.08
2023-05-07T21:19:42.872Z,18.20
2023-05-07T21:22:09.582Z,17.35
2023-05-07T21:24:36.240Z,18.85
2023-05-07T21:27:02.977Z,17.27
2023-05-07T21:29:30.943Z,21.25
2023-05-07T21:31:57.710Z,19.45
2023-05-07T21:34:24.485Z,16.25
2023-05-07T21:36:51.093Z,16.45
2023-05-07T21:39:17.770Z,17.85
2023-05-07T21:41:44.424Z,18.55
2023-05-07T21:44:11.311Z,18.08
2023-05-07T21:46:38.043Z,17.85
2023-05-07T21:49:04.717Z,19.77
2023-05-07T21:51:34.373Z,20.13
2023-05-07T21:54:00.968Z,16.15
2023-05-07T21:56:27.640Z,23.40
2023-05-07T21:58:57.552Z,20.75
2023-05-07T22:01:24.319Z,19.30
2023-05-07T22:03:51.847Z,22.85
2023-05-07T22:06:21.716Z,18.55
2023-05-07T22:08:49.407Z,18.65
2023-05-07T22:11:16.060Z,20.90
2023-05-07T22:13:42.994Z,23.67
2023-05-07T22:16:10.367Z,20.73
2023-05-07T22:18:39.437Z,17.85
2023-05-07T22:21:06.388Z,18.00
2023-05-07T22:23:32.958Z,20.58
2023-05-07T22:26:00.808Z,20.38
2023-05-07T22:28:27.506Z,19.63
2023-05-07T22:30:54.219Z,18.52
2023-05-07T22:33:20.801Z,22.60
2023-05-07T22:35:47.400Z,19.17
2023-05-07T22:38:14.106Z,21.30
2023-05-07T22:40:42.953Z,22.17
2023-05-07T22:43:09.716Z,21.25
2023-05-07T22:45:36.533Z,20.05
2023-05-07T22:48:03.852Z,21.27
2023-05-07T22:50:30.768Z,19.70
2023-05-07T22:52:57.339Z,18.88
2023-05-07T22:55:24.177Z,18.88
2023-05-07T22:57:50.812Z,18.38
2023-05-07T23:00:17.428Z,17.95
2023-05-07T23:02:44.073Z,20.63
2023-05-07T23:05:10.728Z,18.98
2023-05-07T23:07:37.450Z,18.08
2023-05-07T23:10:04.907Z,17.55
2023-05-07T23:12:31.772Z,19.85
2023-05-07T23:14:58.382Z,21.52
2023-05-07T23:17:25.096Z,18.75
2023-05-07T23:19:51.886Z,17.70
2023-05-07T23:22:18.511Z,17.75
2023-05-07T23:24:45.178Z,19.85
2023-05-07T23:27:11.875Z,17.77
2023-05-07T23:29:55.376Z,16.88
2023-05-07T23:32:22.118Z,15.32
2023-05-07T23:34:53.102Z,17.33
2023-05-07T23:37:19.770Z,19.50
2023-05-07T23:39:46.409Z,18.55
2023-05-07T23:42:13.640Z,17.27
2023-05-07T23:44:40.228Z,18.00
2023-05-07T23:47:06.803Z,17.98
2023-05-07T23:49:33.441Z,19.73
2023-05-07T23:52:00.038Z,16.85
2023-05-07T23:54:26.660Z,16.77
2023-05-07T23:56:53.331Z,17.48
2023-05-07T23:59:20.067Z,18.70
